createdAt,value
2022-10-20T00:04:12.801Z,1019.30
2022-10-20T00:09:20.025Z,1019.31
2022-10-20T00:14:27.201Z,1019.32
2022-10-20T00:19:34.410Z,1019.28
2022-10-20T00:24:41.643Z,1019.31
2022-10-20T00:29:48.833Z,1019.36
2022-10-20T00:34:56.018Z,1019.22
2022-10-20T00:40:03.255Z,1019.22
2022-10-20T00:45:10.486Z,1019.16
2022-10-20T00:50:17.749Z,1019.01
2022-10-20T00:55:24.972Z,1018.98
2022-10-20T01:00:32.162Z,1018.94
2022-10-20T01:05:39.403Z,1018.96
2022-10-20T01:10:46.645Z,1018.88
2022-10-20T01:15:53.864Z,1018.82
2022-10-20T01:21:03.800Z,1018.83
2022-10-20T01:26:11.072Z,1018.75
2022-10-20T01:31:18.266Z,1018.68
2022-10-20T01:36:25.454Z,1018.68
2022-10-20T01:41:32.677Z,1018.74
2022-10-20T01:46:39.878Z,1018.70
2022-10-20T01:51:47.120Z,1018.65
2022-10-20T01:56:54.618Z,1018.62
2022-10-20T02:02:01.905Z,1018.49
2022-10-20T02:07:09.174Z,1018.47
2022-10-20T02:12:16.441Z,1018.44
2022-10-20T02:17:23.652Z,1018.43
2022-10-20T02:22:30.842Z,1018.43
2022-10-20T02:27:38.117Z,1018.41
2022-10-20T02:32:45.322Z,1018.38
2022-10-20T02:37:52.522Z,1018.39
2022-10-20T02:42:59.698Z,1018.38
2022-10-20T02:48:07.929Z,1018.34
2022-10-20T02:53:14.198Z,1018.34
2022-10-20T02:58:21.468Z,1018.34
2022-10-20T03:03:28.656Z,1018.35
2022-10-20T03:08:35.890Z,1018.36
2022-10-20T03:13:43.082Z,1018.44
2022-10-20T03:18:50.297Z,1018.37
2022-10-20T03:23:57.652Z,1018.37
2022-10-20T03:29:04.906Z,1018.25
2022-10-20T03:34:12.088Z,1018.23
2022-10-20T03:39:19.292Z,1018.29
2022-10-20T03:44:26.511Z,1018.29
2022-10-20T03:49:33.697Z,1018.20
2022-10-20T03:54:40.937Z,1018.12
2022-10-20T03:59:48.121Z,1018.06
2022-10-20T04:04:55.332Z,1018.03
2022-10-20T04:10:02.553Z,1018.04
2022-10-20T04:15:09.803Z,1018.07
2022-10-20T04:20:17.030Z,1018.04
2022-10-20T04:25:24.245Z,1017.99
2022-10-20T04:30:31.481Z,1017.99
2022-10-20T04:35:38.759Z,1017.98
2022-10-20T04:40:45.847Z,1017.90
2022-10-20T04:45:53.075Z,1017.96
2022-10-20T04:51:00.180Z,1017.92
2022-10-20T04:56:07.344Z,1017.95
2022-10-20T05:01:14.654Z,1017.89
2022-10-20T05:06:21.740Z,1017.83
2022-10-20T05:11:28.914Z,1017.79
2022-10-20T05:16:36.098Z,1017.74
2022-10-20T05:21:43.409Z,1017.67
2022-10-20T05:26:50.625Z,1017.65
2022-10-20T05:31:57.923Z,1017.62
2022-10-20T05:37:05.243Z,1017.56
2022-10-20T05:42:12.717Z,1017.54
2022-10-20T05:47:19.945Z,1017.57
2022-10-20T05:52:32.445Z,1017.59
2022-10-20T05:57:39.695Z,1017.62
2022-10-20T06:02:46.873Z,1017.57
2022-10-20T06:07:54.054Z,1017.56
2022-10-20T06:13:02.187Z,1017.57
2022-10-20T06:18:09.435Z,1017.54
2022-10-20T06:23:17.636Z,1017.45
2022-10-20T06:28:24.924Z,1017.53
2022-10-20T06:33:34.839Z,1017.56
2022-10-20T06:38:42.097Z,1017.60
2022-10-20T06:43:49.504Z,1017.54
2022-10-20T06:48:58.768Z,1017.56
2022-10-20T06:54:03.937Z,1017.41
2022-10-20T06:59:11.138Z,1017.34
2022-10-20T07:04:18.366Z,1017.33
2022-10-20T07:09:25.564Z,1017.34
2022-10-20T07:14:32.742Z,1017.34
2022-10-20T07:19:39.982Z,1017.37
2022-10-20T07:24:47.148Z,1017.26
2022-10-20T07:29:54.370Z,1017.23
2022-10-20T07:35:01.603Z,1017.20
2022-10-20T07:40:08.890Z,1017.17
2022-10-20T07:45:16.081Z,1017.10
2022-10-20T07:50:23.410Z,1017.06
2022-10-20T07:55:38.592Z,1017.14
2022-10-20T08:00:37.797Z,1017.09
2022-10-20T08:05:45.025Z,1017.08
2022-10-20T08:10:52.496Z,1017.02
2022-10-20T08:16:02.669Z,1016.96
2022-10-20T08:21:07.540Z,1016.97
2022-10-20T08:26:19.641Z,1016.94
2022-10-20T08:31:27.082Z,1016.94
2022-10-20T08:36:34.312Z,1016.93
2022-10-20T08:42:06.892Z,1016.95
2022-10-20T08:46:53.689Z,1017.03
2022-10-20T08:52:02.843Z,1017.11
2022-10-20T08:57:10.164Z,1017.34
2022-10-20T09:02:21.386Z,1017.31
2022-10-20T09:07:28.633Z,1017.40
2022-10-20T09:12:50.723Z,1017.38
2022-10-20T09:17:58.701Z,1017.54
2022-10-20T09:23:21.943Z,1017.78
2022-10-20T09:28:14.307Z,1017.86
2022-10-20T09:33:28.186Z,1018.08
2022-10-20T09:38:35.424Z,1018.05
2022-10-20T09:43:42.589Z,1018.15
2022-10-20T09:48:49.780Z,1018.15
2022-10-20T09:53:57.046Z,1018.18
2022-10-20T09:59:04.260Z,1018.28
2022-10-20T10:04:11.588Z,1018.12
2022-10-20T10:09:18.857Z,1018.30
2022-10-20T10:14:25.984Z,1018.36
2022-10-20T10:19:33.191Z,1018.44
2022-10-20T10:24:40.473Z,1018.42
2022-10-20T10:29:47.677Z,1018.43
2022-10-20T10:34:54.861Z,1018.38
2022-10-20T10:40:02.091Z,1018.47
2022-10-20T10:45:09.266Z,1018.40
2022-10-20T10:50:16.550Z,1018.36
2022-10-20T10:55:47.191Z,1018.31
2022-10-20T11:00:31.009Z,1018.32
2022-10-20T11:05:38.216Z,1018.31
2022-10-20T11:10:45.449Z,1018.26
2022-10-20T11:15:52.630Z,1018.13
2022-10-20T11:20:59.861Z,1018.00
2022-10-20T11:26:07.223Z,1017.88
2022-10-20T11:31:14.446Z,1017.99
2022-10-20T11:36:21.657Z,1017.83
2022-10-20T11:41:28.982Z,1017.72
2022-10-20T11:46:36.162Z,1017.62
2022-10-20T11:51:43.384Z,1017.73
2022-10-20T11:56:50.688Z,1017.62
2022-10-20T12:01:57.930Z,1017.41
2022-10-20T12:07:05.088Z,1017.59
2022-10-20T12:12:12.317Z,1017.51
2022-10-20T12:17:19.438Z,1017.50
2022-10-20T12:22:26.592Z,1017.50
2022-10-20T12:27:33.812Z,1017.33
2022-10-20T12:32:40.997Z,1017.24
2022-10-20T12:37:48.573Z,1017.17
2022-10-20T12:42:55.400Z,1017.48
2022-10-20T12:48:02.618Z,1017.38
2022-10-20T12:53:09.842Z,1017.23
2022-10-20T12:58:20.159Z,1017.21
2022-10-20T13:03:27.301Z,1017.08
2022-10-20T13:08:34.550Z,1017.09
2022-10-20T13:13:41.718Z,1017.14
2022-10-20T13:18:48.885Z,1017.26
2022-10-20T13:23:56.125Z,1017.10
2022-10-20T13:29:03.360Z,1017.10
2022-10-20T13:34:10.507Z,1016.88
2022-10-20T13:39:17.718Z,1016.57
2022-10-20T13:44:31.347Z,1016.71
2022-10-20T13:49:36.378Z,1016.53
2022-10-20T13:54:43.598Z,1016.41
2022-10-20T13:59:52.905Z,1016.51
2022-10-20T14:05:00.236Z,1016.34
2022-10-20T14:10:07.438Z,1016.30
2022-10-20T14:15:14.664Z,1016.16
2022-10-20T14:20:21.819Z,1016.09
2022-10-20T14:25:29.102Z,1015.98
2022-10-20T14:30:40.877Z,1015.91
2022-10-20T14:35:43.563Z,1015.85
2022-10-20T14:40:50.774Z,1015.89
2022-10-20T14:45:58.079Z,1015.84
2022-10-20T14:51:05.271Z,1015.86
2022-10-20T14:56:12.476Z,1016.07
2022-10-20T15:01:19.749Z,1016.21
2022-10-20T15:06:26.951Z,1016.02
2022-10-20T15:11:34.204Z,1016.03
2022-10-20T15:16:41.500Z,1015.87
2022-10-20T15:21:48.658Z,1015.90
2022-10-20T15:26:56.097Z,1015.91
2022-10-20T15:32:03.543Z,1015.91
2022-10-20T15:37:10.718Z,1015.94
2022-10-20T15:42:17.979Z,1015.74
2022-10-20T15:47:25.147Z,1015.72
2022-10-20T15:52:33.578Z,1015.54
2022-10-20T15:57:40.596Z,1015.68
2022-10-20T16:02:47.879Z,1015.57
2022-10-20T16:07:55.379Z,1015.49
2022-10-20T16:13:02.988Z,1015.60
2022-10-20T16:18:10.636Z,1015.52
2022-10-20T16:23:17.940Z,1015.55
2022-10-20T16:28:25.133Z,1015.65
2022-10-20T16:33:32.751Z,1015.65
2022-10-20T16:38:40.569Z,1015.70
2022-10-20T16:43:47.232Z,1015.67
2022-10-20T16:48:54.479Z,1015.59
2022-10-20T16:54:03.433Z,1015.55
2022-10-20T16:59:10.389Z,1015.48
2022-10-20T17:04:18.090Z,1015.41
2022-10-20T17:09:25.620Z,1015.41
2022-10-20T17:14:33.133Z,1015.31
2022-10-20T17:19:40.717Z,1015.43
2022-10-20T17:24:48.383Z,1015.53
2022-10-20T17:29:55.971Z,1015.44
2022-10-20T17:35:03.615Z,1015.49
2022-10-20T17:40:11.246Z,1015.46
2022-10-20T17:45:18.662Z,1015.38
2022-10-20T17:50:26.070Z,1015.32
2022-10-20T17:55:33.540Z,1015.32
2022-10-20T18:00:55.321Z,1015.30
2022-10-20T18:05:48.555Z,1015.31
2022-10-20T18:10:56.073Z,1015.40
2022-10-20T18:16:03.786Z,1015.52
2022-10-20T18:21:11.425Z,1015.67
2022-10-20T18:26:19.022Z,1015.84
2022-10-20T18:31:26.629Z,1015.92
2022-10-20T18:36:34.281Z,1015.92
2022-10-20T18:41:41.575Z,1015.88
2022-10-20T18:46:49.074Z,1016.05
2022-10-20T18:51:56.405Z,1016.10
2022-10-20T18:57:03.884Z,1016.35
2022-10-20T19:02:12.533Z,1016.47
2022-10-20T19:07:20.159Z,1016.50
2022-10-20T19:12:27.854Z,1016.60
2022-10-20T19:17:35.364Z,1016.52
2022-10-20T19:22:43.223Z,1016.63
2022-10-20T19:27:50.590Z,1016.71
2022-10-20T19:32:58.209Z,1016.69
2022-10-20T19:38:05.848Z,1016.68
2022-10-20T19:43:14.147Z,1016.53
2022-10-20T19:48:21.565Z,1016.48
2022-10-20T19:53:29.304Z,1016.43
2022-10-20T19:58:38.493Z,1016.43
2022-10-20T20:03:44.612Z,1016.42
2022-10-20T20:08:52.128Z,1016.47
2022-10-20T20:13:59.540Z,1016.41
2022-10-20T20:19:07.651Z,1016.49
2022-10-20T20:24:15.192Z,1016.49
2022-10-20T20:29:22.550Z,1016.54
2022-10-20T20:34:29.841Z,1016.57
2022-10-20T20:39:37.145Z,1016.48
2022-10-20T20:44:44.316Z,1016.60
2022-10-20T20:49:51.519Z,1016.69
2022-10-20T20:54:58.738Z,1016.73
2022-10-20T21:00:05.880Z,1016.72
2022-10-20T21:05:13.117Z,1016.75
2022-10-20T21:10:20.366Z,1016.72
2022-10-20T21:15:27.582Z,1016.66
2022-10-20T21:20:34.903Z,1016.63
2022-10-20T21:25:42.159Z,1016.60
2022-10-20T21:30:49.368Z,1016.44
2022-10-20T21:35:56.576Z,1016.28
2022-10-20T21:41:03.808Z,1016.37
2022-10-20T21:46:10.996Z,1016.18
2022-10-20T21:51:18.190Z,1016.06
2022-10-20T21:56:25.421Z,1015.84
2022-10-20T22:01:32.623Z,1015.53
2022-10-20T22:06:39.811Z,1015.67
2022-10-20T22:11:47.069Z,1015.50
2022-10-20T22:16:54.259Z,1015.30
2022-10-20T22:22:01.546Z,1015.10
2022-10-20T22:27:15.588Z,1015.24
2022-10-20T22:32:16.076Z,1015.27
2022-10-20T22:37:23.281Z,1015.14
2022-10-20T22:42:30.575Z,1015.22
2022-10-20T22:47:37.718Z,1015.07
2022-10-20T22:52:44.964Z,1014.86
2022-10-20T22:57:52.210Z,1014.92
2022-10-20T23:02:59.337Z,1014.91
2022-10-20T23:08:06.487Z,1014.87
2022-10-20T23:13:13.770Z,1014.89
2022-10-20T23:18:20.952Z,1014.87
2022-10-20T23:23:28.173Z,1014.93
2022-10-20T23:28:35.499Z,1014.89
2022-10-20T23:33:42.630Z,1014.93
2022-10-20T23:38:49.874Z,1014.84
2022-10-20T23:43:57.151Z,1014.87
2022-10-20T23:49:04.327Z,1014.76
2022-10-20T23:54:11.490Z,1014.76
2022-10-20T23:59:18.710Z,1014.74
